Time;durP1;ratioP1;P1;durP2;ratioP2;P2;SDS_P1;SDS_P2;PMS_P1;PMS_P2;Temp;Humidity;BMP_temperature;BMP_pressure;BME280_temperature;BME280_humidity;BME280_pressure;Samples;Min_cycle;Max_cycle;Signal;HPM_P1;HPM_P2
2022/06/25 00:01:21;;;;;;;8.18;6.25;;;17.50;99.90;;;;;;5051160;28;20040;-83
2022/06/25 00:03:48;;;;;;;6.57;5.55;;;17.50;99.90;;;;;;5043665;28;20118;-83
2022/06/25 00:06:15;;;;;;;6.85;6.00;;;17.40;99.90;;;;;;5062333;28;20041;-83
2022/06/25 00:08:50;;;;;;;7.57;6.03;;;17.40;99.90;;;;;;5044915;28;20036;-82
2022/06/25 00:19:36;;;;;;;6.43;5.28;;;17.30;99.90;;;;;;5113740;28;20118;-83
2022/06/25 00:22:25;;;;;;;5.53;4.95;;;17.30;99.90;;;;;;5097662;28;20035;-83
2022/06/25 00:24:54;;;;;;;6.13;5.53;;;17.20;99.90;;;;;;5106651;27;20074;-84
2022/06/25 00:27:23;;;;;;;6.68;6.07;;;17.20;99.90;;;;;;5086349;28;20120;-83
2022/06/25 00:30:14;;;;;;;7.07;6.38;;;17.30;99.90;;;;;;5098194;27;20485;-84
2022/06/25 00:32:39;;;;;;;6.60;6.05;;;17.10;99.90;;;;;;5111326;27;20035;-85
2022/06/25 00:35:05;;;;;;;7.25;6.63;;;17.20;99.90;;;;;;5115987;27;20539;-84
2022/06/25 00:37:42;;;;;;;8.05;7.05;;;17.20;99.90;;;;;;5110836;27;20031;-84
2022/06/25 00:40:09;;;;;;;8.88;7.93;;;17.20;99.90;;;;;;5116951;27;20113;-82
2022/06/25 00:42:45;;;;;;;8.82;7.93;;;17.20;99.90;;;;;;5117044;27;20039;-84
2022/06/25 00:45:21;;;;;;;8.27;7.47;;;17.20;99.90;;;;;;5116781;27;20027;-85
2022/06/25 00:47:46;;;;;;;9.40;8.10;;;17.20;99.90;;;;;;5117627;27;20050;-84
2022/06/25 00:50:14;;;;;;;8.05;7.25;;;17.30;99.90;;;;;;5117749;27;20077;-84
2022/06/25 00:52:42;;;;;;;8.63;7.82;;;17.30;99.90;;;;;;5113908;27;20130;-84
2022/06/25 00:55:28;;;;;;;8.80;7.97;;;17.30;99.90;;;;;;5114091;27;20317;-84
2022/06/25 01:01:42;;;;;;;8.65;7.85;;;17.20;99.90;;;;;;5118024;28;19915;-84
2022/06/25 01:04:11;;;;;;;10.77;8.32;;;17.10;99.90;;;;;;5119334;27;20064;-84
2022/06/25 01:06:58;;;;;;;10.10;7.95;;;17.10;99.90;;;;;;5118279;28;20039;-84
2022/06/25 01:10:12;;;;;;;;;;;;;;;;;;;;;
2022/06/25 01:13:01;;;;;;;10.65;9.65;;;16.90;99.90;;;;;;5119230;28;20570;-84
2022/06/25 01:15:35;;;;;;;8.82;7.93;;;16.80;99.90;;;;;;5099872;28;20059;-84
2022/06/25 01:18:00;;;;;;;9.73;8.80;;;16.80;99.90;;;;;;5101291;28;20061;-83
2022/06/25 01:20:32;;;;;;;8.43;7.55;;;16.70;99.90;;;;;;5093005;28;20115;-84
2022/06/25 01:23:18;;;;;;;9.48;8.43;;;16.70;99.90;;;;;;5116904;28;20041;-84
2022/06/25 01:26:16;;;;;;;;;;;;;;;;;;;;;
2022/06/25 01:29:20;;;;;;;13.02;11.38;;;16.70;99.90;;;;;;5080288;28;20051;-84
2022/06/25 01:43:49;;;;;;;12.10;11.00;;;16.40;99.90;;;;;;4938564;29;20048;-84
2022/06/25 01:46:54;;;;;;;11.63;9.25;;;16.30;99.90;;;;;;4959578;28;20036;-84
2022/06/25 01:49:35;;;;;;;14.30;12.88;;;16.10;99.90;;;;;;5044098;28;20659;-83
2022/06/25 01:52:09;;;;;;;10.80;9.57;;;16.20;99.90;;;;;;5076932;28;20044;-84
2022/06/25 02:45:43;;;;;;;19.65;17.63;;;15.70;99.90;;;;;;5145272;27;20054;-83
2022/06/25 02:48:10;;;;;;;18.75;16.42;;;15.80;99.90;;;;;;5127630;27;20035;-83
2022/06/25 02:50:36;;;;;;;18.35;15.00;;;15.80;99.90;;;;;;5128688;27;20404;-83
2022/06/25 02:53:02;;;;;;;17.20;15.50;;;15.80;99.90;;;;;;5126407;27;20066;-84
2022/06/25 03:50:02;;;;;;;18.92;16.15;;;15.90;99.90;;;;;;5110316;28;20036;-85
2022/06/25 03:57:07;;;;;;;20.85;16.60;;;16.10;99.90;;;;;;5062224;28;20055;-84
2022/06/25 04:49:38;;;;;;;12.98;11.52;;;16.90;99.90;;;;;;5091607;28;20398;-85
2022/06/25 04:52:07;;;;;;;14.30;12.10;;;17.00;99.90;;;;;;5091208;28;20181;-84
2022/06/25 04:54:38;;;;;;;13.27;12.02;;;17.00;99.90;;;;;;5074731;28;20074;-84
2022/06/25 04:57:10;;;;;;;17.35;13.90;;;17.10;99.90;;;;;;5091866;28;20447;-84
2022/06/25 04:59:57;;;;;;;13.02;11.75;;;17.20;99.90;;;;;;5084744;28;20048;-84
2022/06/25 05:02:58;;;;;;;12.65;10.68;;;17.20;99.90;;;;;;5077494;28;20407;-84
2022/06/25 05:05:38;;;;;;;11.07;9.95;;;17.40;99.90;;;;;;5071374;28;20044;-85
2022/06/25 05:08:10;;;;;;;14.48;10.55;;;17.40;99.90;;;;;;5076881;28;20043;-85
2022/06/25 05:11:05;;;;;;;12.27;11.18;;;17.50;99.90;;;;;;5073583;28;20052;-84
2022/06/25 05:13:31;;;;;;;11.50;10.30;;;17.60;99.90;;;;;;5058913;28;20044;-84
2022/06/25 05:15:56;;;;;;;11.10;10.07;;;17.60;99.90;;;;;;5091437;28;20055;-81
2022/06/25 05:18:28;;;;;;;11.55;10.48;;;17.70;99.90;;;;;;5080160;28;20051;-82
2022/06/25 05:21:01;;;;;;;11.55;9.77;;;17.80;99.90;;;;;;5057507;28;20043;-82
2022/06/25 05:23:49;;;;;;;;;;;;;;;;;;;;;
2022/06/25 05:26:15;;;;;;;10.32;9.32;;;17.90;99.90;;;;;;5059209;28;20098;-82
2022/06/25 05:28:40;;;;;;;10.20;9.20;;;18.00;99.90;;;;;;5044007;28;20040;-83
2022/06/25 05:31:11;;;;;;;11.27;10.10;;;18.10;99.90;;;;;;5076581;28;20066;-83
2022/06/25 05:33:40;;;;;;;10.80;9.70;;;18.10;99.90;;;;;;5047274;28;20052;-83
2022/06/25 05:36:20;;;;;;;9.18;7.75;;;18.20;99.90;;;;;;5043408;28;20037;-83
2022/06/25 05:39:00;;;;;;;9.57;8.15;;;18.20;99.90;;;;;;5078983;28;20044;-83
2022/06/25 05:41:30;;;;;;;8.70;7.82;;;18.40;99.90;;;;;;5063342;28;20128;-83
2022/06/25 05:44:11;;;;;;;;;;;;;;;;;;;;;
2022/06/25 05:46:46;;;;;;;10.95;8.57;;;18.50;99.90;;;;;;5065823;28;20033;-83
2022/06/25 05:49:12;;;;;;;8.93;7.90;;;18.60;99.90;;;;;;5095432;28;20042;-83
2022/06/25 05:51:45;;;;;;;8.55;7.78;;;18.70;99.90;;;;;;5096874;28;20051;-83
2022/06/25 05:54:13;;;;;;;8.00;7.18;;;18.80;99.90;;;;;;5097155;28;20088;-83
2022/06/25 05:56:39;;;;;;;7.53;6.82;;;18.80;99.90;;;;;;5094791;28;20045;-83
2022/06/25 05:59:12;;;;;;;9.95;8.02;;;18.90;99.90;;;;;;5057054;28;20055;-86
2022/06/25 06:02:27;;;;;;;8.48;7.28;;;18.90;99.90;;;;;;5047885;28;20117;-83
2022/06/25 06:05:05;;;;;;;11.18;7.90;;;19.00;99.90;;;;;;5074089;28;20044;-84
2022/06/25 06:07:43;;;;;;;7.25;6.53;;;19.10;99.90;;;;;;5092041;28;20071;-83
2022/06/25 06:10:09;;;;;;;8.57;7.68;;;19.20;99.90;;;;;;5093429;28;20041;-84
2022/06/25 06:12:50;;;;;;;10.02;7.20;;;19.30;99.90;;;;;;5091028;28;20047;-84
2022/06/25 06:15:19;;;;;;;9.18;6.95;;;19.30;99.90;;;;;;5092356;28;20186;-83
2022/06/25 06:17:47;;;;;;;6.65;5.90;;;19.50;99.90;;;;;;5078840;28;20173;-83
2022/06/25 06:23:37;;;;;;;8.07;6.07;;;19.70;99.90;;;;;;5095703;28;20040;-83
2022/06/25 06:26:12;;;;;;;5.10;4.63;;;19.90;99.90;;;;;;5079238;28;20127;-83
2022/06/25 06:28:43;;;;;;;6.25;5.50;;;20.10;99.90;;;;;;5098215;28;20094;-83
2022/06/25 06:31:09;;;;;;;8.52;6.25;;;20.50;99.90;;;;;;5098509;28;20539;-82
2022/06/25 06:34:09;;;;;;;5.82;5.15;;;20.80;99.90;;;;;;5094933;28;20482;-82
2022/06/25 06:36:43;;;;;;;5.30;4.72;;;21.00;99.90;;;;;;5078339;28;20036;-83
2022/06/25 06:39:10;;;;;;;5.28;4.65;;;21.10;99.90;;;;;;5082741;28;20603;-84
2022/06/25 06:41:38;;;;;;;4.28;3.83;;;21.30;99.90;;;;;;5083317;28;20036;-84
2022/06/25 06:44:04;;;;;;;4.50;4.10;;;21.40;99.90;;;;;;5084513;28;20036;-84
2022/06/25 06:46:32;;;;;;;9.10;5.25;;;21.60;99.90;;;;;;5070924;28;20047;-82
2022/06/25 06:48:58;;;;;;;5.65;3.85;;;21.80;99.90;;;;;;5084799;28;20036;-83
2022/06/25 06:51:24;;;;;;;5.88;3.72;;;21.90;99.90;;;;;;5087708;28;20329;-83
2022/06/25 06:53:49;;;;;;;5.28;3.60;;;22.10;99.90;;;;;;5083368;28;20048;-83
2022/06/25 06:56:15;;;;;;;5.82;3.28;;;22.20;99.90;;;;;;5086078;28;20048;-82
2022/06/25 06:58:40;;;;;;;6.20;3.28;;;22.50;99.90;;;;;;5081391;28;20040;-81
2022/06/25 07:01:06;;;;;;;4.30;2.53;;;22.60;99.90;;;;;;5070228;28;20025;-82
2022/06/25 07:03:31;;;;;;;4.63;3.65;;;22.80;99.90;;;;;;5080041;28;20040;-83
2022/06/25 07:05:57;;;;;;;3.95;2.42;;;23.00;99.90;;;;;;5099865;28;20044;-82
2022/06/25 07:08:23;;;;;;;4.80;3.22;;;23.10;99.90;;;;;;5091844;28;20045;-81
2022/06/25 07:10:48;;;;;;;3.70;1.98;;;23.10;99.90;;;;;;5084325;28;20047;-81
2022/06/25 07:13:14;;;;;;;6.85;2.92;;;23.00;99.90;;;;;;5074720;28;20044;-81
2022/06/25 07:15:39;;;;;;;3.88;2.42;;;23.10;99.90;;;;;;5065810;28;20037;-82
2022/06/25 07:18:06;;;;;;;3.53;1.95;;;23.20;99.90;;;;;;5072607;28;20109;-82
2022/06/25 07:20:32;;;;;;;3.47;1.73;;;23.50;99.90;;;;;;5081291;28;20096;-81
2022/06/25 07:22:57;;;;;;;2.30;1.55;;;23.60;99.90;;;;;;5079949;28;20644;-82
2022/06/25 07:25:23;;;;;;;4.95;2.45;;;23.80;99.90;;;;;;5080884;28;20036;-82
2022/06/25 07:27:48;;;;;;;5.72;1.90;;;24.10;99.90;;;;;;5088569;28;20465;-82
2022/06/25 07:30:14;;;;;;;3.92;1.85;;;24.20;99.90;;;;;;5083973;28;20047;-82
2022/06/25 07:32:40;;;;;;;4.88;1.17;;;24.30;99.90;;;;;;5085650;28;20044;-82
2022/06/25 07:35:07;;;;;;;2.17;0.90;;;24.40;99.90;;;;;;5084659;28;20036;-82
2022/06/25 07:37:32;;;;;;;1.83;1.17;;;24.40;99.90;;;;;;5081747;28;20040;-82
2022/06/25 07:39:58;;;;;;;2.97;1.23;;;24.50;99.90;;;;;;5084880;28;20119;-82
2022/06/25 07:42:24;;;;;;;5.85;1.58;;;24.50;99.90;;;;;;5061052;28;20072;-82
2022/06/25 07:44:50;;;;;;;3.30;1.65;;;24.60;99.90;;;;;;5061066;28;20039;-82
2022/06/25 07:47:16;;;;;;;1.92;0.98;;;24.70;99.90;;;;;;5075528;28;20036;-82
2022/06/25 07:52:26;;;;;;;1.27;0.85;;;24.90;99.90;;;;;;5098874;28;20048;-80
2022/06/25 07:54:51;;;;;;;3.75;1.92;;;24.70;99.90;;;;;;5080154;28;20028;-80
2022/06/25 07:57:17;;;;;;;3.15;1.35;;;24.70;99.90;;;;;;5073591;28;20512;-80
2022/06/25 07:59:43;;;;;;;1.17;0.52;;;24.80;99.90;;;;;;5085336;28;20032;-80
2022/06/25 08:02:08;;;;;;;2.88;0.75;;;24.90;99.90;;;;;;5075552;28;20066;-82
2022/06/25 08:04:34;;;;;;;4.50;1.23;;;25.10;99.90;;;;;;5103305;28;20072;-81
2022/06/25 08:07:00;;;;;;;33.58;29.15;;;25.30;99.90;;;;;;5101676;28;20059;-81
2022/06/25 08:09:26;;;;;;;203.35;149.85;;;25.40;99.90;;;;;;5066614;28;20044;-80
2022/06/25 08:11:51;;;;;;;17.45;12.68;;;25.50;99.90;;;;;;5066788;28;20044;-81
2022/06/25 08:14:17;;;;;;;68.05;47.15;;;25.60;99.90;;;;;;5087472;28;20076;-81
2022/06/25 08:16:42;;;;;;;37.10;27.23;;;25.80;99.90;;;;;;5081885;28;20043;-80
2022/06/25 08:19:08;;;;;;;8.10;5.22;;;25.90;99.90;;;;;;5093921;28;20040;-82
2022/06/25 08:21:33;;;;;;;16.73;14.18;;;26.00;99.90;;;;;;5102172;28;20079;-80
2022/06/25 08:23:59;;;;;;;5.10;1.75;;;25.90;99.90;;;;;;5095890;28;20055;-80
2022/06/25 08:26:25;;;;;;;2.22;0.90;;;25.70;99.90;;;;;;5083791;28;20047;-82
2022/06/25 08:28:51;;;;;;;3.53;0.95;;;25.80;99.90;;;;;;5074683;28;20036;-82
2022/06/25 08:31:16;;;;;;;3.33;0.50;;;26.00;99.90;;;;;;5085069;28;20028;-81
2022/06/25 08:33:42;;;;;;;3.08;0.63;;;26.30;99.90;;;;;;5070328;28;20537;-81
2022/06/25 08:36:07;;;;;;;4.22;0.70;;;26.40;99.90;;;;;;5073254;28;20059;-81
2022/06/25 08:38:33;;;;;;;2.72;1.30;;;26.30;99.90;;;;;;5056485;28;20048;-81
2022/06/25 08:41:00;;;;;;;2.97;1.13;;;26.30;99.90;;;;;;5071339;28;20390;-81
2022/06/25 08:43:26;;;;;;;2.45;0.45;;;26.30;99.90;;;;;;5070319;28;20039;-81
2022/06/25 08:45:53;;;;;;;2.17;0.50;;;26.20;99.90;;;;;;5053399;28;20040;-81
2022/06/25 08:48:24;;;;;;;3.53;0.63;;;25.90;99.90;;;;;;5096220;28;20119;-79
2022/06/25 08:50:50;;;;;;;1.48;0.77;;;25.60;99.90;;;;;;5075898;28;20108;-81
2022/06/25 08:53:17;;;;;;;2.90;0.50;;;25.50;99.90;;;;;;5059849;28;20044;-81
2022/06/25 08:55:45;;;;;;;1.85;0.40;;;25.70;99.90;;;;;;5076965;28;20036;-81
2022/06/25 08:58:12;;;;;;;1.42;0.82;;;26.10;99.90;;;;;;5079459;28;20047;-81
2022/06/25 09:00:40;;;;;;;1.95;0.98;;;26.40;99.90;;;;;;5079488;28;20058;-81
2022/06/25 09:03:07;;;;;;;2.65;1.08;;;26.60;99.90;;;;;;5077739;28;20655;-81
2022/06/25 09:05:34;;;;;;;1.80;0.98;;;26.70;99.90;;;;;;5069001;28;20041;-80
2022/06/25 09:08:02;;;;;;;2.35;0.65;;;26.50;99.90;;;;;;5072755;28;20059;-82
2022/06/25 09:10:29;;;;;;;3.55;0.75;;;26.50;99.90;;;;;;5056097;28;20098;-81
2022/06/25 09:12:57;;;;;;;2.95;0.77;;;26.50;99.90;;;;;;5060501;28;20044;-82
2022/06/25 09:15:27;;;;;;;1.83;1.15;;;26.40;99.90;;;;;;5087496;28;20036;-81
2022/06/25 09:17:53;;;;;;;2.38;1.10;;;26.30;99.90;;;;;;5069992;28;20040;-81
2022/06/25 09:20:20;;;;;;;1.88;1.15;;;26.50;99.90;;;;;;5074113;28;20067;-80
2022/06/25 09:22:58;;;;;;;3.67;1.25;;;26.80;99.90;;;;;;5071090;28;20036;-81
2022/06/25 09:25:26;;;;;;;3.17;0.88;;;27.00;99.90;;;;;;5071174;28;20036;-81
2022/06/25 09:27:52;;;;;;;2.25;0.50;;;26.90;99.90;;;;;;5093642;28;20036;-81
2022/06/25 09:30:20;;;;;;;1.13;0.57;;;27.00;99.90;;;;;;5074296;28;20044;-80
2022/06/25 09:32:57;;;;;;;1.33;0.50;;;27.20;99.90;;;;;;5065468;28;20049;-81
2022/06/25 09:35:31;;;;;;;1.30;0.35;;;27.30;99.90;;;;;;5080590;28;20037;-80
2022/06/25 09:38:04;;;;;;;1.75;0.50;;;27.10;99.90;;;;;;5066268;28;20102;-82
2022/06/25 09:40:30;;;;;;;3.42;0.60;;;26.70;99.90;;;;;;5057156;28;20160;-82
2022/06/25 09:42:57;;;;;;;3.97;1.25;;;26.50;99.90;;;;;;5074006;28;20494;-81
2022/06/25 09:45:23;;;;;;;3.95;1.10;;;26.40;99.90;;;;;;5071555;28;20032;-79
2022/06/25 09:47:48;;;;;;;9.55;7.18;;;26.50;99.90;;;;;;5069867;28;20062;-80
2022/06/25 09:50:17;;;;;;;3.30;1.35;;;26.60;99.90;;;;;;5056728;28;20070;-81
2022/06/25 09:53:00;;;;;;;3.38;2.30;;;26.90;99.90;;;;;;5068973;28;20035;-81
2022/06/25 09:55:31;;;;;;;7.55;2.67;;;27.30;99.90;;;;;;5074351;28;20051;-81
2022/06/25 09:58:00;;;;;;;2.60;0.95;;;27.50;99.90;;;;;;5076866;28;20569;-80
2022/06/25 10:00:25;;;;;;;3.83;0.88;;;27.40;99.90;;;;;;5078587;28;20056;-81
2022/06/25 10:02:52;;;;;;;3.50;0.85;;;27.20;99.90;;;;;;5077178;28;20494;-81
2022/06/25 10:05:26;;;;;;;2.60;0.63;;;27.30;99.90;;;;;;5079084;28;20036;-80
2022/06/25 10:08:01;;;;;;;4.88;0.70;;;27.20;99.90;;;;;;5079230;28;20040;-82
2022/06/25 10:10:33;;;;;;;2.30;1.05;;;27.10;99.90;;;;;;5079167;28;21005;-80
2022/06/25 10:13:01;;;;;;;1.75;0.73;;;27.10;99.90;;;;;;5096093;28;20097;-81
2022/06/25 10:15:28;;;;;;;4.22;1.10;;;27.10;99.90;;;;;;5076201;28;20032;-82
2022/06/25 10:17:53;;;;;;;2.25;0.75;;;27.00;99.90;;;;;;5075068;28;20048;-82
2022/06/25 10:20:20;;;;;;;1.75;0.50;;;27.10;99.90;;;;;;5077636;28;20047;-81
2022/06/25 10:22:48;;;;;;;1.50;0.50;;;27.30;99.90;;;;;;5075206;28;20478;-81
2022/06/25 10:25:17;;;;;;;3.13;0.50;;;27.30;99.90;;;;;;5076888;28;20040;-82
2022/06/25 10:27:50;;;;;;;1.92;0.75;;;27.30;99.90;;;;;;5072829;28;20075;-81
2022/06/25 10:30:38;;;;;;;2.58;0.70;;;27.40;99.90;;;;;;5071097;28;20051;-81
2022/06/25 10:33:03;;;;;;;3.20;0.90;;;27.60;99.90;;;;;;5074312;28;20043;-82
2022/06/25 10:35:32;;;;;;;3.60;1.05;;;27.70;99.90;;;;;;5076972;28;20089;-81
2022/06/25 10:38:09;;;;;;;2.97;0.80;;;28.00;99.90;;;;;;5081272;28;20051;-82
2022/06/25 10:40:57;;;;;;;5.88;0.95;;;28.20;99.90;;;;;;5081861;28;20032;-81
2022/06/25 10:43:45;;;;;;;3.58;0.73;;;28.40;99.90;;;;;;5077740;28;20063;-81
2022/06/25 10:46:22;;;;;;;4.00;1.33;;;28.60;98.10;;;;;;5075213;28;20113;-81
2022/06/25 10:49:02;;;;;;;2.72;0.82;;;28.60;99.90;;;;;;5077759;28;20043;-82
2022/06/25 10:51:30;;;;;;;1.05;0.50;;;28.40;99.90;;;;;;5079321;28;20091;-81
2022/06/25 10:53:57;;;;;;;5.35;1.77;;;28.00;99.90;;;;;;5064115;28;20060;-81
2022/06/25 10:56:22;;;;;;;14.73;9.18;;;27.80;99.90;;;;;;5063622;28;20388;-80
2022/06/25 10:58:49;;;;;;;7.13;3.70;;;27.80;99.90;;;;;;5075331;28;20246;-81
2022/06/25 11:01:19;;;;;;;3.38;0.82;;;27.80;99.90;;;;;;5101470;28;20038;-82
2022/06/25 11:03:46;;;;;;;3.42;0.82;;;28.30;99.90;;;;;;5082638;28;20044;-81
2022/06/25 11:06:21;;;;;;;3.72;1.65;;;28.40;99.90;;;;;;5081635;28;20138;-82
2022/06/25 11:08:47;;;;;;;2.33;0.63;;;28.80;99.00;;;;;;5081104;28;20048;-80
2022/06/25 11:11:21;;;;;;;1.90;0.30;;;29.20;98.40;;;;;;5065644;28;20055;-81
2022/06/25 11:13:47;;;;;;;;;;;29.70;98.20;;;;;;5083920;28;20046;-81
2022/06/25 11:16:14;;;;;;;4.07;0.80;;;29.80;92.40;;;;;;5101061;28;20006;-81
2022/06/25 11:19:06;;;;;;;13.00;4.75;;;29.70;96.60;;;;;;5081359;28;20048;-81
2022/06/25 11:21:37;;;;;;;9.23;2.25;;;29.80;94.40;;;;;;5076543;28;20052;-81
2022/06/25 11:24:11;;;;;;;3.85;0.93;;;29.50;94.70;;;;;;5082034;28;20047;-81
2022/06/25 11:29:24;;;;;;;12.93;3.92;;;29.00;92.00;;;;;;5071076;28;19994;-81
2022/06/25 11:31:52;;;;;;;24.65;7.43;;;29.20;95.30;;;;;;5062685;28;20371;-81
2022/06/25 11:34:19;;;;;;;7.80;2.15;;;29.40;93.80;;;;;;5094514;28;20040;-82
2022/06/25 11:36:54;;;;;;;7.15;1.92;;;29.60;93.40;;;;;;5077632;28;20042;-82
2022/06/25 11:39:19;;;;;;;7.30;1.90;;;29.70;94.00;;;;;;5070773;28;20075;-81
2022/06/25 11:41:50;;;;;;;8.95;2.17;;;29.60;90.90;;;;;;5061730;28;20041;-82
2022/06/25 11:44:15;;;;;;;2.63;0.57;;;29.60;91.30;;;;;;5062197;28;20050;-82
2022/06/25 11:46:41;;;;;;;4.82;0.93;;;29.70;90.00;;;;;;5062378;28;20045;-81
2022/06/25 11:49:06;;;;;;;1.45;0.20;;;29.40;90.10;;;;;;5045189;28;20528;-81
2022/06/25 11:51:32;;;;;;;1.00;0.22;;;29.20;91.30;;;;;;5045142;28;20037;-82
2022/06/25 11:54:04;;;;;;;4.28;0.35;;;28.90;92.90;;;;;;5080798;28;20100;-81
2022/06/25 11:56:30;;;;;;;3.38;0.55;;;28.80;92.20;;;;;;5062280;28;20506;-81
2022/06/25 11:58:55;;;;;;;3.20;0.30;;;28.70;92.00;;;;;;5077104;28;20055;-81
2022/06/25 12:01:28;;;;;;;3.33;0.50;;;28.40;92.90;;;;;;5081866;28;20398;-81
2022/06/25 12:03:54;;;;;;;1.10;0.30;;;28.40;94.40;;;;;;5081569;28;20055;-81
2022/06/25 12:06:22;;;;;;;11.43;0.90;;;28.50;94.60;;;;;;5070778;28;20048;-80
2022/06/25 12:08:48;;;;;;;1.55;0.40;;;28.60;92.40;;;;;;5092907;28;20496;-81
2022/06/25 12:11:13;;;;;;;2.67;0.45;;;28.90;91.10;;;;;;5091461;28;20112;-81
2022/06/25 12:13:39;;;;;;;6.30;3.70;;;29.20;90.80;;;;;;5081681;28;20068;-81
2022/06/25 12:16:05;;;;;;;4.65;1.75;;;29.50;90.30;;;;;;5082087;28;20036;-81
2022/06/25 12:18:40;;;;;;;3.13;0.30;;;30.10;88.80;;;;;;5081021;28;20513;-81
2022/06/25 12:21:08;;;;;;;3.33;1.42;;;30.90;79.40;;;;;;5099877;28;20611;-81
2022/06/25 12:23:54;;;;;;;1.38;0.75;;;31.30;76.50;;;;;;5081714;28;20135;-81
2022/06/25 12:26:27;;;;;;;1.50;0.47;;;31.70;73.00;;;;;;5082564;28;20040;-81
2022/06/25 12:29:03;;;;;;;2.95;0.93;;;32.10;82.80;;;;;;5099382;28;20418;-82
2022/06/25 12:31:29;;;;;;;3.42;0.30;;;31.80;76.10;;;;;;5081012;28;20051;-81
2022/06/25 12:33:54;;;;;;;7.32;1.10;;;31.50;77.30;;;;;;5071706;28;20394;-80
2022/06/25 12:36:20;;;;;;;2.90;0.30;;;31.10;78.50;;;;;;5098711;28;20534;-81
2022/06/25 12:38:46;;;;;;;0.90;0.20;;;30.70;78.10;;;;;;5080123;28;20072;-81
2022/06/25 12:41:12;;;;;;;1.00;0.20;;;30.40;82.10;;;;;;5100293;28;20044;-82
2022/06/25 12:43:48;;;;;;;1.15;0.40;;;30.10;86.10;;;;;;5081021;28;20039;-82
2022/06/25 12:46:19;;;;;;;0.95;0.20;;;29.60;88.10;;;;;;5073729;28;20054;-82
2022/06/25 12:48:45;;;;;;;3.22;0.22;;;29.10;87.30;;;;;;5074712;28;20044;-82
2022/06/25 12:51:14;;;;;;;1.27;0.20;;;28.60;91.50;;;;;;5084719;28;20457;-81
2022/06/25 12:53:46;;;;;;;1.50;0.30;;;28.10;89.20;;;;;;5060476;28;20085;-81
2022/06/25 12:56:12;;;;;;;1.00;0.30;;;27.70;91.70;;;;;;5060572;28;20360;-81
2022/06/25 12:58:40;;;;;;;2.45;0.30;;;27.40;93.80;;;;;;5096600;28;20063;-82
2022/06/25 13:01:24;;;;;;;3.17;0.35;;;27.00;93.40;;;;;;5058481;28;20048;-81
2022/06/25 13:04:05;;;;;;;1.42;0.30;;;26.40;92.70;;;;;;5075807;28;20066;-81
2022/06/25 13:06:33;;;;;;;1.77;0.30;;;26.00;93.50;;;;;;5075184;28;20577;-81
2022/06/25 13:08:59;;;;;;;1.27;0.30;;;25.60;95.60;;;;;;5060302;28;20032;-81
2022/06/25 13:11:25;;;;;;;2.60;0.40;;;25.30;96.10;;;;;;5077751;28;20044;-81
2022/06/25 13:13:51;;;;;;;2.47;0.40;;;25.10;96.40;;;;;;5066838;28;20043;-80
2022/06/25 13:16:16;;;;;;;2.08;0.30;;;25.00;97.60;;;;;;5075803;28;20452;-80
2022/06/25 13:18:43;;;;;;;1.90;0.35;;;25.10;99.90;;;;;;5061471;28;20048;-80
2022/06/25 13:21:12;;;;;;;5.20;0.30;;;25.50;99.90;;;;;;5077923;28;20036;-81
2022/06/25 13:23:38;;;;;;;4.43;0.40;;;26.20;99.90;;;;;;5077572;28;20058;-81
2022/06/25 13:26:04;;;;;;;2.67;0.40;;;27.10;99.90;;;;;;5060553;28;20046;-81
2022/06/25 13:28:33;;;;;;;1.20;0.40;;;28.00;99.90;;;;;;5060591;28;20148;-81
2022/06/25 13:31:08;;;;;;;2.25;0.63;;;28.40;94.90;;;;;;5040289;28;20127;-81
2022/06/25 13:33:33;;;;;;;0.98;0.50;;;28.20;93.10;;;;;;5058976;28;20076;-81
2022/06/25 13:36:00;;;;;;;1.08;0.40;;;27.70;94.50;;;;;;5070197;28;20407;-81
2022/06/25 13:38:25;;;;;;;2.72;0.40;;;27.70;97.10;;;;;;5065713;28;20486;-81
2022/06/25 13:40:51;;;;;;;2.40;0.30;;;27.70;97.60;;;;;;5080673;28;20043;-82
2022/06/25 13:43:17;;;;;;;1.17;0.50;;;27.20;97.30;;;;;;5068816;28;20033;-82
2022/06/25 13:45:42;;;;;;;1.35;0.45;;;27.00;98.60;;;;;;5098650;28;20044;-80
2022/06/25 13:48:08;;;;;;;1.42;0.70;;;26.80;97.60;;;;;;5079476;28;20496;-80
2022/06/25 13:50:34;;;;;;;0.90;0.50;;;26.50;97.40;;;;;;5097123;28;20071;-80
2022/06/25 13:53:00;;;;;;;2.03;0.70;;;26.30;97.90;;;;;;5098125;28;20109;-81
2022/06/25 13:55:25;;;;;;;2.13;0.47;;;26.10;98.60;;;;;;5096398;28;20036;-81
2022/06/25 13:57:51;;;;;;;1.17;0.43;;;26.00;99.90;;;;;;5079041;28;20032;-80
2022/06/25 14:00:16;;;;;;;1.48;0.30;;;26.10;99.90;;;;;;5059703;28;20072;-82
2022/06/25 14:02:42;;;;;;;1.02;0.40;;;26.40;99.90;;;;;;5060570;28;20413;-81
2022/06/25 14:05:08;;;;;;;3.45;0.80;;;26.80;99.90;;;;;;5059159;28;20115;-80
2022/06/25 14:07:33;;;;;;;2.88;0.90;;;26.80;98.80;;;;;;5058785;28;20041;-80
2022/06/25 14:09:59;;;;;;;1.00;0.57;;;26.40;98.60;;;;;;5060382;28;20033;-81
2022/06/25 14:12:25;;;;;;;1.48;0.35;;;26.20;99.90;;;;;;5065785;28;20032;-81
2022/06/25 14:14:50;;;;;;;0.85;0.38;;;26.30;99.90;;;;;;5079629;28;20486;-81
2022/06/25 14:17:16;;;;;;;1.50;0.28;;;26.30;99.90;;;;;;5079850;28;20056;-80
2022/06/25 14:19:42;;;;;;;0.98;0.50;;;26.20;99.80;;;;;;5079223;28;20044;-80
2022/06/25 14:22:08;;;;;;;2.28;0.80;;;26.10;99.90;;;;;;5062002;28;20124;-80
2022/06/25 14:27:17;;;;;;;1.37;0.50;;;26.30;99.90;;;;;;5081682;28;20378;-81
2022/06/25 14:29:43;;;;;;;1.95;0.28;;;26.40;99.90;;;;;;5065035;28;20044;-81
2022/06/25 14:32:10;;;;;;;0.90;0.40;;;26.50;99.80;;;;;;5063782;28;20033;-80
2022/06/25 14:34:35;;;;;;;1.10;0.50;;;26.70;99.10;;;;;;5063677;28;20080;-81
2022/06/25 14:42:29;;;;;;;0.93;0.25;;;27.40;93.90;;;;;;5065905;28;20044;-82
2022/06/25 14:44:55;;;;;;;1.80;0.30;;;27.30;92.70;;;;;;5070894;28;20037;-81
2022/06/25 14:47:20;;;;;;;3.60;0.30;;;27.40;92.80;;;;;;5062730;28;20093;-80
2022/06/25 14:49:46;;;;;;;2.85;0.30;;;27.50;93.80;;;;;;5063500;28;20036;-81
2022/06/25 14:52:11;;;;;;;2.03;0.40;;;27.60;92.70;;;;;;5062794;28;20490;-81
2022/06/25 14:54:37;;;;;;;1.67;0.52;;;28.20;91.90;;;;;;5064069;28;20028;-81
2022/06/25 14:57:03;;;;;;;0.90;0.50;;;28.90;91.50;;;;;;5064471;28;20036;-81
2022/06/25 14:59:29;;;;;;;2.38;0.43;;;29.40;89.80;;;;;;5043988;28;20041;-81
2022/06/25 15:01:54;;;;;;;1.58;0.30;;;29.90;82.80;;;;;;5077149;28;20032;-81
2022/06/25 15:04:20;;;;;;;4.85;0.50;;;30.20;81.80;;;;;;5083376;28;20091;-82
2022/06/25 15:06:45;;;;;;;5.03;0.70;;;30.20;81.10;;;;;;5082666;28;20506;-81
2022/06/25 15:09:11;;;;;;;2.53;0.32;;;30.60;83.30;;;;;;5098456;28;20119;-81
2022/06/25 15:11:37;;;;;;;1.08;0.40;;;31.10;83.30;;;;;;5098637;28;20036;-82
2022/06/25 15:14:02;;;;;;;4.88;0.82;;;31.60;76.60;;;;;;5080977;28;20047;-82
2022/06/25 15:16:31;;;;;;;0.73;0.30;;;31.90;74.60;;;;;;5081960;28;20072;-81
2022/06/25 15:18:57;;;;;;;0.82;0.30;;;32.00;69.70;;;;;;5080450;28;20044;-81
2022/06/25 15:21:22;;;;;;;1.35;0.40;;;31.50;69.90;;;;;;5082553;28;20494;-82
2022/06/25 15:23:49;;;;;;;2.15;0.43;;;31.20;70.30;;;;;;5081935;28;20031;-81
2022/06/25 15:26:15;;;;;;;2.05;0.30;;;31.50;74.70;;;;;;5079778;28;20043;-82
2022/06/25 15:28:40;;;;;;;2.60;0.40;;;31.90;70.50;;;;;;5080626;28;20115;-82
2022/06/25 15:31:06;;;;;;;2.70;0.80;;;32.60;68.50;;;;;;5079495;28;20059;-81
2022/06/25 15:33:32;;;;;;;2.58;0.40;;;33.00;68.10;;;;;;5077670;28;20473;-82
2022/06/25 15:35:57;;;;;;;0.75;0.30;;;32.70;66.40;;;;;;5077200;28;20111;-82
2022/06/25 15:38:24;;;;;;;1.30;0.40;;;32.00;68.40;;;;;;5081906;28;20127;-81
2022/06/25 15:40:50;;;;;;;6.00;0.68;;;30.90;69.10;;;;;;5077851;28;20430;-82
2022/06/25 15:43:15;;;;;;;3.72;0.50;;;30.30;70.90;;;;;;5055762;28;20036;-81
2022/06/25 15:45:41;;;;;;;3.13;0.75;;;29.90;75.40;;;;;;5071323;28;20101;-81
2022/06/25 15:48:07;;;;;;;3.30;0.47;;;29.60;75.00;;;;;;5083469;28;20064;-81
2022/06/25 15:50:38;;;;;;;1.45;0.43;;;30.10;76.10;;;;;;5079161;28;20097;-81
2022/06/25 15:53:05;;;;;;;2.63;0.30;;;30.90;73.60;;;;;;5074669;28;20532;-82
2022/06/25 15:55:31;;;;;;;0.50;0.10;;;31.30;70.40;;;;;;5085459;28;20067;-82
2022/06/25 15:57:56;;;;;;;1.35;0.25;;;31.80;67.90;;;;;;5077215;28;20040;-82
2022/06/25 16:00:22;;;;;;;3.13;0.10;;;32.10;66.40;;;;;;5094461;28;20119;-82
2022/06/25 16:02:47;;;;;;;1.05;0.10;;;32.30;63.70;;;;;;5089465;28;20041;-82
2022/06/25 16:05:13;;;;;;;0.77;0.20;;;32.40;63.80;;;;;;5089788;28;20043;-83
2022/06/25 16:07:39;;;;;;;1.73;0.10;;;32.10;63.30;;;;;;5073814;28;20116;-82
2022/06/25 16:10:06;;;;;;;4.22;3.28;;;31.60;64.30;;;;;;5059748;28;20119;-82
2022/06/25 16:12:33;;;;;;;5.43;2.85;;;31.20;65.30;;;;;;5055722;28;20035;-82
2022/06/25 16:14:59;;;;;;;15.95;12.02;;;30.70;66.10;;;;;;5067879;28;20058;-81
2022/06/25 16:17:24;;;;;;;4.70;1.67;;;30.40;68.10;;;;;;5092828;28;20483;-81
2022/06/25 16:19:50;;;;;;;6.80;5.32;;;30.10;71.50;;;;;;5096093;28;20062;-81
2022/06/25 16:22:16;;;;;;;2.58;1.30;;;29.70;73.10;;;;;;5093712;28;20032;-81